Weather at Puerto Adolfo López Mateos Airstrip

Public forecast

Using degrees Celsius for public forecast. Weather courtesy of forecast.io.

Closest aviation weather report (METAR) to Puerto Adolfo López Mateos Airstrip

Closest report is Loreto International Airport, 63.1 nm (116.9 km) NE. Retrieved 2021/01/25 22:40 UTC (0 seconds ago):

MMLT 252240Z 13010KT 10SM SKC 19/09 A2995

Closest aviation forecast (TAF) to Puerto Adolfo López Mateos Airstrip

Closest forecast is Loreto International Airport, 63.1 nm (116.9 km) NE. Retrieved 2021/01/25 18:00 UTC (4 hours ago):

TAF MMLT 251656Z 2518/2618 22010KT P6SM SKC FM260200 26005KT P6SM SCT030 BECMG 2617/2618 27010KT